Time;durP1;ratioP1;P1;durP2;ratioP2;P2;SDS_P1;SDS_P2;PMS_P1;PMS_P2;Temp;Humidity;BMP_temperature;BMP_pressure;BME280_temperature;BME280_humidity;BME280_pressure;Samples;Min_cycle;Max_cycle;Signal;HPM_P1;HPM_P2
2022/10/30 00:00:24;;;;;;;19.95;7.88;;;16.20;99.90;;;;;;5091858;28;20510;-50
2022/10/30 00:02:50;;;;;;;18.80;9.55;;;16.20;99.90;;;;;;5091684;28;20290;-50
2022/10/30 00:05:16;;;;;;;24.63;11.60;;;16.10;99.90;;;;;;5091884;28;20184;-50
2022/10/30 00:07:42;;;;;;;16.58;7.90;;;16.10;99.90;;;;;;5091770;28;20161;-50
2022/10/30 00:10:08;;;;;;;13.98;6.57;;;16.10;99.90;;;;;;5091740;28;20623;-50
2022/10/30 00:12:34;;;;;;;15.90;8.15;;;16.10;99.90;;;;;;5092138;28;20166;-50
2022/10/30 00:14:59;;;;;;;35.33;17.50;;;16.10;99.90;;;;;;5091667;28;20243;-50
2022/10/30 00:17:25;;;;;;;39.42;18.75;;;16.10;99.90;;;;;;5091642;28;20537;-50
2022/10/30 00:19:50;;;;;;;15.52;8.10;;;16.10;99.90;;;;;;5091643;28;20179;-51
2022/10/30 00:22:16;;;;;;;20.52;9.90;;;16.00;99.90;;;;;;5091594;28;20193;-50
2022/10/30 00:24:42;;;;;;;15.20;6.90;;;16.00;99.90;;;;;;5091561;28;20169;-50
2022/10/30 00:27:07;;;;;;;17.02;6.85;;;16.00;99.90;;;;;;5091568;28;20169;-50
2022/10/30 00:29:33;;;;;;;10.82;6.20;;;16.00;99.90;;;;;;5094698;28;20165;-51
2022/10/30 00:31:58;;;;;;;17.55;6.60;;;16.00;99.90;;;;;;5095753;28;20174;-51
2022/10/30 00:34:24;;;;;;;17.40;7.15;;;16.00;99.90;;;;;;5095654;28;20201;-51
2022/10/30 00:36:50;;;;;;;11.93;6.22;;;16.00;99.90;;;;;;5095156;28;20173;-51
2022/10/30 00:39:15;;;;;;;15.85;7.03;;;16.00;99.90;;;;;;5095543;28;20178;-51
2022/10/30 00:41:41;;;;;;;21.58;7.10;;;15.90;99.90;;;;;;5077285;28;20161;-50
2022/10/30 00:44:44;;;;;;;19.88;9.75;;;15.90;99.90;;;;;;5095691;28;20588;-50
2022/10/30 00:47:18;;;;;;;20.00;11.10;;;15.90;99.90;;;;;;5095638;28;20184;-50
2022/10/30 00:50:07;;;;;;;24.48;8.68;;;15.90;99.90;;;;;;5095349;28;20238;-50
2022/10/30 00:52:39;;;;;;;21.63;7.60;;;15.90;99.90;;;;;;5095708;28;20632;-50
2022/10/30 00:55:14;;;;;;;18.90;7.63;;;15.80;99.90;;;;;;5095653;28;20211;-50
2022/10/30 00:57:40;;;;;;;21.23;10.98;;;15.80;99.90;;;;;;5095180;28;20169;-50
2022/10/30 01:00:07;;;;;;;15.93;9.25;;;15.80;99.90;;;;;;5095520;28;20685;-51
2022/10/30 01:02:33;;;;;;;17.20;8.30;;;15.80;99.90;;;;;;5095178;28;20217;-50
2022/10/30 01:04:59;;;;;;;12.10;7.68;;;15.80;99.90;;;;;;5094751;28;20197;-51
2022/10/30 01:07:26;;;;;;;12.73;7.28;;;15.70;99.90;;;;;;5095297;28;20288;-50
2022/10/30 01:09:51;;;;;;;12.70;6.68;;;15.80;99.90;;;;;;5076802;28;20236;-50
2022/10/30 01:12:17;;;;;;;14.40;7.57;;;15.80;99.90;;;;;;5094960;28;20169;-51
2022/10/30 01:14:51;;;;;;;12.45;6.38;;;15.70;99.90;;;;;;5094921;28;20292;-50
2022/10/30 01:17:45;;;;;;;12.40;6.75;;;15.70;99.90;;;;;;5095169;28;20165;-50
2022/10/30 01:20:31;;;;;;;14.65;6.57;;;15.70;99.90;;;;;;5094734;28;20177;-51
2022/10/30 01:23:27;;;;;;;13.88;6.90;;;15.70;99.90;;;;;;5094727;28;20165;-50
2022/10/30 01:26:20;;;;;;;13.45;7.55;;;15.60;99.90;;;;;;5094931;28;20181;-50
2022/10/30 01:29:20;;;;;;;14.27;7.93;;;15.60;99.90;;;;;;5094718;28;20165;-51
2022/10/30 01:32:13;;;;;;;19.40;8.27;;;15.50;99.90;;;;;;5094657;28;20655;-50
2022/10/30 01:34:54;;;;;;;15.98;8.00;;;15.40;99.90;;;;;;5094575;28;20284;-50
2022/10/30 01:37:49;;;;;;;16.83;7.85;;;15.40;99.90;;;;;;5094673;28;20173;-50
2022/10/30 01:40:17;;;;;;;11.75;7.40;;;15.40;99.90;;;;;;5087140;28;20628;-50
2022/10/30 01:42:54;;;;;;;14.80;7.57;;;15.40;99.90;;;;;;5094643;28;20588;-50
2022/10/30 01:46:00;;;;;;;19.45;8.90;;;15.40;99.90;;;;;;5094204;28;20659;-50
2022/10/30 01:49:01;;;;;;;17.05;7.13;;;15.40;99.90;;;;;;5094511;28;20169;-50
2022/10/30 01:51:37;;;;;;;9.50;5.35;;;15.40;99.90;;;;;;5094190;28;20157;-50
2022/10/30 01:54:34;;;;;;;9.50;4.72;;;15.30;99.90;;;;;;5094374;28;20201;-50
2022/10/30 01:57:10;;;;;;;14.27;5.30;;;15.30;99.90;;;;;;5094084;28;20248;-51
2022/10/30 01:59:47;;;;;;;10.05;4.90;;;15.40;99.90;;;;;;5094456;28;20239;-50
2022/10/30 02:02:13;;;;;;;9.45;5.90;;;15.30;99.90;;;;;;5093790;28;20217;-50
2022/10/30 02:04:38;;;;;;;11.02;4.68;;;15.40;99.90;;;;;;5094200;28;20180;-51
2022/10/30 02:07:04;;;;;;;25.88;6.40;;;15.30;99.90;;;;;;5094460;28;20717;-51
2022/10/30 02:09:30;;;;;;;7.82;5.30;;;15.30;99.90;;;;;;5093788;28;20652;-51
2022/10/30 02:11:57;;;;;;;13.07;5.25;;;15.30;99.90;;;;;;5093792;28;20244;-50
2022/10/30 02:14:30;;;;;;;10.40;5.07;;;15.30;99.90;;;;;;5093645;28;20680;-51
2022/10/30 02:16:59;;;;;;;11.20;5.80;;;15.30;99.90;;;;;;5093629;28;20211;-50
2022/10/30 02:19:24;;;;;;;15.07;5.78;;;15.30;99.90;;;;;;5093595;28;20252;-50
2022/10/30 02:21:51;;;;;;;11.52;5.55;;;15.20;99.90;;;;;;5093527;28;20673;-50
2022/10/30 02:24:16;;;;;;;12.60;5.25;;;15.20;99.90;;;;;;5093486;28;20215;-50
2022/10/30 02:26:42;;;;;;;8.98;5.82;;;15.10;99.90;;;;;;5093579;28;20165;-51
2022/10/30 02:29:07;;;;;;;15.20;5.95;;;15.10;99.90;;;;;;5093498;28;20201;-50
2022/10/30 02:31:33;;;;;;;9.68;4.72;;;15.00;99.90;;;;;;5093824;28;20162;-51
2022/10/30 02:33:59;;;;;;;9.70;5.78;;;15.00;99.90;;;;;;5093305;28;20723;-51
2022/10/30 02:36:25;;;;;;;14.90;6.22;;;15.00;99.90;;;;;;5093345;28;20162;-51
2022/10/30 02:38:50;;;;;;;12.15;5.45;;;14.90;99.90;;;;;;5093462;28;20173;-51
2022/10/30 02:41:16;;;;;;;9.75;5.47;;;14.90;99.90;;;;;;5093172;28;20530;-51
2022/10/30 02:43:41;;;;;;;12.45;6.57;;;14.80;99.90;;;;;;5093176;28;20311;-51
2022/10/30 02:46:07;;;;;;;12.77;6.80;;;14.80;99.90;;;;;;5093118;28;20181;-50
2022/10/30 02:48:32;;;;;;;11.65;5.88;;;14.80;99.90;;;;;;5093392;28;20162;-51
2022/10/30 02:51:02;;;;;;;10.43;5.57;;;14.80;99.90;;;;;;5093056;28;20252;-50
2022/10/30 02:53:28;;;;;;;8.90;6.13;;;14.70;99.90;;;;;;5091840;28;20197;-51
2022/10/30 02:55:54;;;;;;;8.57;6.43;;;14.70;99.90;;;;;;5092911;28;20176;-51
2022/10/30 02:58:19;;;;;;;10.00;5.68;;;14.60;99.90;;;;;;5092856;28;20331;-51
2022/10/30 03:00:45;;;;;;;10.05;5.85;;;14.50;99.90;;;;;;5092941;28;20647;-51
2022/10/30 03:03:10;;;;;;;14.73;6.85;;;14.50;99.90;;;;;;5092694;28;20293;-51
2022/10/30 03:05:36;;;;;;;9.80;6.07;;;14.50;99.90;;;;;;5092666;28;20173;-51
2022/10/30 03:08:02;;;;;;;8.65;5.90;;;14.50;99.90;;;;;;5093102;28;20240;-51
2022/10/30 03:10:27;;;;;;;12.60;5.80;;;14.50;99.90;;;;;;5092885;28;20193;-51
2022/10/30 03:12:53;;;;;;;14.35;7.18;;;14.40;99.90;;;;;;5092557;28;20617;-50
2022/10/30 03:15:19;;;;;;;9.57;6.10;;;14.40;99.90;;;;;;5092587;28;20222;-50
2022/10/30 03:17:44;;;;;;;12.18;6.50;;;14.30;99.90;;;;;;5092518;28;20518;-50
2022/10/30 03:20:10;;;;;;;16.40;7.03;;;14.40;99.90;;;;;;5092457;28;20177;-50
2022/10/30 03:22:36;;;;;;;15.10;7.22;;;14.30;99.90;;;;;;5092335;28;20168;-47
2022/10/30 03:25:02;;;;;;;8.98;5.95;;;14.30;99.90;;;;;;5092712;28;20161;-48
2022/10/30 03:27:27;;;;;;;13.80;6.80;;;14.30;99.90;;;;;;5092554;28;20652;-48
2022/10/30 03:29:53;;;;;;;10.75;6.13;;;14.20;99.90;;;;;;5092347;28;20617;-50
2022/10/30 03:32:18;;;;;;;11.68;6.35;;;14.20;99.90;;;;;;5092241;28;20161;-50
2022/10/30 03:34:44;;;;;;;13.70;6.20;;;14.20;99.90;;;;;;5092187;28;20269;-51
2022/10/30 03:37:09;;;;;;;13.57;5.93;;;14.20;99.90;;;;;;5092178;28;20530;-50
2022/10/30 03:39:35;;;;;;;13.32;6.22;;;14.20;99.90;;;;;;5092514;28;20640;-50
2022/10/30 03:42:01;;;;;;;13.57;6.30;;;14.90;99.90;;;;;;5092520;28;20624;-50
2022/10/30 03:44:26;;;;;;;11.48;6.20;;;14.20;99.90;;;;;;5092096;28;20165;-50
2022/10/30 03:46:52;;;;;;;9.77;5.82;;;14.20;99.90;;;;;;5092276;28;20169;-51
2022/10/30 03:49:17;;;;;;;11.10;5.65;;;14.20;99.90;;;;;;5092100;28;20181;-51
2022/10/30 03:51:43;;;;;;;13.60;5.97;;;14.10;99.90;;;;;;5091997;28;20165;-51
2022/10/30 03:54:08;;;;;;;8.88;5.97;;;14.10;99.90;;;;;;5091929;28;20205;-50
2022/10/30 03:56:35;;;;;;;11.50;5.57;;;14.10;99.90;;;;;;5092249;28;20240;-51
2022/10/30 03:59:00;;;;;;;9.23;5.85;;;14.00;99.90;;;;;;5092171;28;20251;-51
2022/10/30 04:01:26;;;;;;;11.95;6.97;;;14.00;99.90;;;;;;5091885;28;20200;-50
2022/10/30 04:03:51;;;;;;;9.55;5.95;;;13.90;99.90;;;;;;5091525;28;20636;-51
2022/10/30 04:06:17;;;;;;;9.70;5.93;;;13.90;99.90;;;;;;5091871;28;20249;-51
2022/10/30 04:08:42;;;;;;;18.17;6.25;;;13.80;99.90;;;;;;5091850;28;20200;-50
2022/10/30 04:11:12;;;;;;;13.23;6.03;;;13.80;99.90;;;;;;5091821;28;20200;-51
2022/10/30 04:13:38;;;;;;;13.30;6.03;;;13.80;99.90;;;;;;5091727;28;20699;-50
2022/10/30 04:16:05;;;;;;;11.82;6.65;;;13.80;99.90;;;;;;5092107;28;20161;-51
2022/10/30 04:18:31;;;;;;;10.35;5.55;;;13.80;99.90;;;;;;5092269;28;20204;-50
2022/10/30 04:20:58;;;;;;;11.07;6.00;;;13.80;99.90;;;;;;5091834;28;20629;-51
2022/10/30 04:23:24;;;;;;;9.52;6.00;;;13.70;99.90;;;;;;5091743;28;20158;-51
2022/10/30 04:25:50;;;;;;;15.02;6.30;;;13.70;99.90;;;;;;5091599;28;20192;-50
2022/10/30 04:28:15;;;;;;;11.77;5.50;;;13.70;99.90;;;;;;5091772;28;20555;-50
2022/10/30 04:30:41;;;;;;;11.40;5.68;;;13.70;99.90;;;;;;5091812;28;20231;-51
2022/10/30 04:33:10;;;;;;;7.53;5.70;;;13.70;99.90;;;;;;5091427;28;20193;-51
2022/10/30 04:35:37;;;;;;;9.60;5.75;;;13.70;99.90;;;;;;5091649;28;20161;-51
2022/10/30 04:38:11;;;;;;;13.48;6.10;;;13.60;99.90;;;;;;5091877;28;20540;-51
2022/10/30 04:40:38;;;;;;;8.93;6.03;;;13.50;99.90;;;;;;5091519;28;20260;-51
2022/10/30 04:43:05;;;;;;;12.23;5.93;;;13.60;99.90;;;;;;5074052;28;20176;-51
2022/10/30 04:45:31;;;;;;;11.57;6.22;;;13.60;99.90;;;;;;5091858;28;20165;-51
2022/10/30 04:48:06;;;;;;;17.67;6.78;;;13.60;99.90;;;;;;5091421;28;20177;-51
2022/10/30 04:50:33;;;;;;;13.13;6.07;;;13.60;99.90;;;;;;5091716;28;20168;-51
2022/10/30 04:53:11;;;;;;;8.95;6.60;;;13.60;99.90;;;;;;5091192;28;20204;-51
2022/10/30 04:55:37;;;;;;;11.20;5.72;;;13.60;99.90;;;;;;5091247;28;20268;-51
2022/10/30 04:58:03;;;;;;;16.58;6.20;;;13.50;99.90;;;;;;5091942;28;20189;-51
2022/10/30 05:00:29;;;;;;;12.30;6.43;;;13.50;99.90;;;;;;5091333;28;20173;-51
2022/10/30 05:02:57;;;;;;;11.75;6.05;;;13.60;99.90;;;;;;5091150;28;20213;-51
2022/10/30 05:05:23;;;;;;;15.85;5.97;;;13.60;99.90;;;;;;5091295;28;20277;-51
2022/10/30 05:07:48;;;;;;;14.35;6.80;;;13.50;99.90;;;;;;5091335;28;20240;-51
2022/10/30 05:10:15;;;;;;;12.18;6.55;;;13.50;99.90;;;;;;5091230;28;20654;-51
2022/10/30 05:12:42;;;;;;;19.20;9.90;;;13.50;99.90;;;;;;5091188;28;20645;-50
2022/10/30 05:15:08;;;;;;;23.25;11.98;;;13.40;99.90;;;;;;5091631;28;20216;-51
2022/10/30 05:17:34;;;;;;;10.90;6.45;;;13.40;99.90;;;;;;5095153;28;20176;-51
2022/10/30 05:19:59;;;;;;;12.77;6.63;;;13.40;99.90;;;;;;5094750;28;20165;-51
2022/10/30 05:22:25;;;;;;;15.88;6.50;;;13.40;99.90;;;;;;5094840;28;20194;-51
2022/10/30 05:24:50;;;;;;;11.73;6.70;;;13.40;99.90;;;;;;5094646;28;20655;-51
2022/10/30 05:27:16;;;;;;;13.25;6.43;;;13.40;99.90;;;;;;5076478;28;20161;-50
2022/10/30 05:29:41;;;;;;;9.65;5.60;;;13.40;99.90;;;;;;5094667;28;20173;-50
2022/10/30 05:32:07;;;;;;;10.18;6.13;;;13.40;99.90;;;;;;5094623;28;20222;-50
2022/10/30 05:34:32;;;;;;;9.52;6.00;;;13.30;99.90;;;;;;5094848;28;20200;-50
2022/10/30 05:36:58;;;;;;;16.25;9.52;;;13.30;99.90;;;;;;5094462;28;20165;-50
2022/10/30 05:39:23;;;;;;;16.52;8.93;;;13.30;99.90;;;;;;5094540;28;20631;-51
2022/10/30 05:41:49;;;;;;;15.07;5.93;;;13.30;99.90;;;;;;5094360;28;20621;-50
2022/10/30 05:44:14;;;;;;;24.58;13.45;;;13.20;99.90;;;;;;5094570;28;20175;-50
2022/10/30 05:46:41;;;;;;;17.08;7.32;;;13.20;99.90;;;;;;5094277;28;20169;-51
2022/10/30 05:49:07;;;;;;;13.98;6.30;;;13.10;99.90;;;;;;5094022;28;20173;-51
2022/10/30 05:51:32;;;;;;;11.80;6.18;;;13.10;99.90;;;;;;5094397;28;20173;-50
2022/10/30 05:53:58;;;;;;;13.07;6.28;;;13.10;99.90;;;;;;5093965;28;20239;-51
2022/10/30 05:56:23;;;;;;;11.25;5.70;;;13.10;99.90;;;;;;5094045;28;20625;-51
2022/10/30 05:58:49;;;;;;;10.75;5.45;;;13.00;99.90;;;;;;5093718;28;20172;-50
2022/10/30 06:01:15;;;;;;;13.63;5.90;;;12.90;99.90;;;;;;5094269;28;20529;-50
2022/10/30 06:03:40;;;;;;;14.60;6.88;;;12.90;99.90;;;;;;5093845;28;20695;-50
2022/10/30 06:06:06;;;;;;;8.98;5.93;;;12.90;99.90;;;;;;5094155;28;20510;-50
2022/10/30 06:08:32;;;;;;;9.65;6.57;;;12.90;99.90;;;;;;5094234;28;20158;-50
2022/10/30 06:10:57;;;;;;;11.60;5.85;;;12.90;99.90;;;;;;5093774;28;20192;-50
2022/10/30 06:13:23;;;;;;;7.70;5.70;;;12.90;99.90;;;;;;5093758;28;20208;-50
2022/10/30 06:15:48;;;;;;;10.23;7.05;;;12.90;99.90;;;;;;5093671;28;20169;-50
2022/10/30 06:18:14;;;;;;;16.77;8.95;;;12.90;99.90;;;;;;5093732;28;20249;-50
2022/10/30 06:20:39;;;;;;;10.80;6.28;;;12.90;99.90;;;;;;5093648;28;20245;-51
2022/10/30 06:23:08;;;;;;;11.07;5.78;;;12.90;99.90;;;;;;5093647;28;20168;-50
2022/10/30 06:25:35;;;;;;;10.25;5.72;;;12.80;99.90;;;;;;5094181;28;20177;-50
2022/10/30 06:28:01;;;;;;;13.32;6.38;;;12.80;99.90;;;;;;5093162;28;20177;-51
2022/10/30 06:30:27;;;;;;;8.02;6.18;;;12.80;99.90;;;;;;5093533;28;20169;-50
2022/10/30 06:33:00;;;;;;;14.70;6.78;;;12.80;99.90;;;;;;5093312;28;20517;-51
2022/10/30 06:35:27;;;;;;;9.38;5.93;;;12.80;99.90;;;;;;5093429;28;20173;-51
2022/10/30 06:37:55;;;;;;;9.38;6.40;;;12.80;99.90;;;;;;5093302;28;20161;-51
2022/10/30 06:40:21;;;;;;;12.73;6.78;;;12.80;99.90;;;;;;5093227;28;20256;-50
2022/10/30 06:42:48;;;;;;;12.93;6.40;;;12.90;99.90;;;;;;5093237;28;20157;-50
2022/10/30 06:45:15;;;;;;;13.60;6.47;;;12.90;99.90;;;;;;5093160;28;20252;-50
2022/10/30 06:47:41;;;;;;;12.23;6.20;;;12.90;99.90;;;;;;5093131;28;20676;-51
2022/10/30 06:50:09;;;;;;;18.73;7.20;;;12.90;99.90;;;;;;5093118;28;20200;-50
2022/10/30 06:52:34;;;;;;;9.27;5.93;;;12.90;99.90;;;;;;5093426;28;20165;-51
2022/10/30 06:55:00;;;;;;;12.45;6.05;;;13.00;99.90;;;;;;5093267;28;20209;-51
2022/10/30 06:57:26;;;;;;;13.23;6.13;;;12.90;99.90;;;;;;5092899;28;20165;-51
2022/10/30 06:59:51;;;;;;;11.82;7.50;;;12.90;99.90;;;;;;5092819;28;20214;-50
2022/10/30 07:02:17;;;;;;;11.57;7.43;;;12.90;99.90;;;;;;5074424;28;20205;-51
2022/10/30 07:04:44;;;;;;;12.35;7.03;;;12.90;99.90;;;;;;5092746;28;20256;-50
2022/10/30 07:07:10;;;;;;;12.00;6.75;;;13.00;99.90;;;;;;5092750;28;20244;-50
2022/10/30 07:09:36;;;;;;;14.65;8.52;;;13.00;99.90;;;;;;5092702;28;20174;-49
2022/10/30 07:12:01;;;;;;;15.32;7.53;;;13.10;99.90;;;;;;5092823;28;20162;-49
2022/10/30 07:14:27;;;;;;;12.13;7.78;;;13.10;99.90;;;;;;5092433;28;20212;-49
2022/10/30 07:16:55;;;;;;;13.02;6.55;;;13.10;99.90;;;;;;5092984;28;20187;-50
2022/10/30 07:19:22;;;;;;;10.52;6.97;;;13.30;99.90;;;;;;5092569;28;20165;-49
2022/10/30 07:21:47;;;;;;;12.77;7.57;;;13.30;99.90;;;;;;5092564;28;20548;-50
2022/10/30 07:24:13;;;;;;;16.60;7.35;;;13.30;99.90;;;;;;5092719;28;20169;-50
2022/10/30 07:26:39;;;;;;;14.27;7.70;;;13.30;99.90;;;;;;5092356;28;20208;-49
2022/10/30 07:29:04;;;;;;;14.27;7.45;;;13.30;99.90;;;;;;5092705;28;20161;-50
2022/10/30 07:31:30;;;;;;;16.90;7.00;;;13.40;99.90;;;;;;5092914;28;20216;-49
2022/10/30 07:33:56;;;;;;;10.68;6.97;;;13.50;99.90;;;;;;5092185;28;20208;-50
2022/10/30 07:36:21;;;;;;;16.65;7.55;;;13.50;99.90;;;;;;5092266;28;20169;-50
2022/10/30 07:38:48;;;;;;;62.35;27.58;;;13.60;99.90;;;;;;5091298;28;20219;-50
2022/10/30 07:41:14;;;;;;;41.20;17.85;;;13.70;99.90;;;;;;5092115;28;20172;-49
2022/10/30 07:43:39;;;;;;;31.80;15.77;;;13.80;99.90;;;;;;5092150;28;20194;-50
2022/10/30 07:46:05;;;;;;;23.33;10.18;;;13.90;99.90;;;;;;5091964;28;20165;-50
2022/10/30 07:48:30;;;;;;;13.60;7.45;;;14.10;99.90;;;;;;5092408;28;20681;-49
2022/10/30 07:50:56;;;;;;;13.32;6.13;;;14.20;99.90;;;;;;5091995;28;20169;-49
2022/10/30 07:53:22;;;;;;;11.32;7.10;;;14.20;99.90;;;;;;5091875;28;20215;-50
2022/10/30 07:55:47;;;;;;;14.95;6.43;;;14.40;99.90;;;;;;5091647;28;20495;-50
2022/10/30 07:58:13;;;;;;;12.18;6.75;;;14.50;99.90;;;;;;5073627;28;20532;-49
2022/10/30 08:00:38;;;;;;;38.45;15.23;;;14.70;99.90;;;;;;5091663;28;20529;-50
2022/10/30 08:03:05;;;;;;;48.70;20.23;;;14.80;99.90;;;;;;5091907;28;20209;-50
2022/10/30 08:05:30;;;;;;;22.98;10.55;;;14.90;99.90;;;;;;5092281;28;20165;-50
2022/10/30 08:07:56;;;;;;;21.65;10.25;;;15.00;99.90;;;;;;5091667;28;20710;-49
2022/10/30 08:10:22;;;;;;;27.23;11.80;;;15.10;99.90;;;;;;5091617;28;20165;-50
2022/10/30 08:12:47;;;;;;;24.13;9.63;;;15.20;99.90;;;;;;5091510;28;20161;-50
2022/10/30 08:15:13;;;;;;;15.02;6.57;;;15.30;99.90;;;;;;5091774;28;20205;-50
2022/10/30 08:17:44;;;;;;;15.85;7.80;;;15.40;99.90;;;;;;5091623;28;20226;-50
2022/10/30 08:20:11;;;;;;;21.70;8.85;;;15.50;99.90;;;;;;5091474;28;20175;-50
2022/10/30 08:22:44;;;;;;;18.08;8.15;;;15.50;99.90;;;;;;5091617;28;20699;-50
2022/10/30 08:25:10;;;;;;;20.95;9.85;;;15.50;99.90;;;;;;5091945;28;20586;-50
2022/10/30 08:27:35;;;;;;;21.52;10.23;;;15.60;99.90;;;;;;5091379;28;20253;-49
2022/10/30 08:30:01;;;;;;;21.73;8.85;;;15.70;99.90;;;;;;5091946;28;20198;-49
2022/10/30 08:32:26;;;;;;;16.63;9.00;;;15.80;99.90;;;;;;5091532;28;20200;-51
2022/10/30 08:34:52;;;;;;;28.45;13.05;;;15.90;99.90;;;;;;5091199;28;20201;-50
2022/10/30 08:37:17;;;;;;;30.65;17.08;;;16.00;99.90;;;;;;5091285;28;20173;-49
2022/10/30 08:39:43;;;;;;;40.42;19.95;;;16.10;99.90;;;;;;5091017;28;20176;-50
2022/10/30 08:42:08;;;;;;;31.40;15.30;;;16.10;99.90;;;;;;5090955;28;20164;-49
2022/10/30 08:44:34;;;;;;;22.95;13.43;;;16.20;99.90;;;;;;5091767;28;20169;-49
2022/10/30 08:46:59;;;;;;;18.85;12.73;;;16.00;99.90;;;;;;5091453;28;20168;-49
2022/10/30 08:49:25;;;;;;;27.25;15.10;;;16.50;99.90;;;;;;5092133;28;20219;-49
2022/10/30 08:51:50;;;;;;;26.45;14.25;;;16.60;99.90;;;;;;5095281;28;20165;-49
2022/10/30 08:54:16;;;;;;;22.48;14.60;;;16.80;99.90;;;;;;5095304;28;20209;-49
2022/10/30 08:56:42;;;;;;;30.83;14.13;;;16.80;99.90;;;;;;5095180;28;20213;-49
2022/10/30 08:59:07;;;;;;;19.38;11.60;;;16.90;99.90;;;;;;5094957;28;20244;-49
2022/10/30 09:01:33;;;;;;;23.65;11.80;;;16.90;99.90;;;;;;5094965;28;20173;-49
2022/10/30 09:03:58;;;;;;;17.85;9.57;;;17.10;99.90;;;;;;5095088;28;20184;-49
2022/10/30 09:06:24;;;;;;;22.58;10.20;;;17.10;99.90;;;;;;5095004;28;20169;-49
2022/10/30 09:08:49;;;;;;;17.17;10.80;;;17.10;99.90;;;;;;5095073;28;20195;-49
2022/10/30 09:11:16;;;;;;;22.70;10.32;;;17.30;99.90;;;;;;5094948;28;20161;-49
2022/10/30 09:13:41;;;;;;;19.05;9.63;;;17.40;99.90;;;;;;5095123;28;20287;-50
2022/10/30 09:16:07;;;;;;;17.55;9.13;;;17.40;99.90;;;;;;5094558;28;20248;-50
2022/10/30 09:18:33;;;;;;;16.10;8.63;;;17.50;99.90;;;;;;5095032;28;20196;-50
2022/10/30 09:20:58;;;;;;;13.55;8.80;;;17.60;99.90;;;;;;5094079;28;20176;-50
2022/10/30 09:23:24;;;;;;;12.88;7.88;;;17.60;99.90;;;;;;5094652;28;20165;-50
2022/10/30 09:25:49;;;;;;;16.50;8.50;;;17.70;99.90;;;;;;5094245;28;20211;-49
2022/10/30 09:28:15;;;;;;;11.40;7.60;;;17.80;99.90;;;;;;5094553;28;20157;-50
2022/10/30 09:30:40;;;;;;;14.23;8.07;;;17.90;99.90;;;;;;5094417;28;20248;-50
2022/10/30 09:33:06;;;;;;;12.20;8.23;;;18.00;99.90;;;;;;5094675;28;20166;-50
2022/10/30 09:35:31;;;;;;;12.55;7.75;;;18.00;99.90;;;;;;5094566;28;20169;-50
2022/10/30 09:37:57;;;;;;;13.77;8.00;;;18.00;99.90;;;;;;5094345;28;20169;-50
2022/10/30 09:40:40;;;;;;;16.15;9.05;;;18.10;99.90;;;;;;5093921;28;20166;-49
2022/10/30 09:43:21;;;;;;;15.18;8.32;;;18.00;99.90;;;;;;5094053;28;20571;-49
2022/10/30 09:46:07;;;;;;;11.27;7.93;;;18.00;99.90;;;;;;5093586;28;20641;-49
2022/10/30 09:48:59;;;;;;;14.27;7.97;;;18.00;99.90;;;;;;5093234;28;20165;-49
2022/10/30 09:52:01;;;;;;;13.88;7.70;;;18.00;99.90;;;;;;5075633;28;20211;-50
2022/10/30 09:54:35;;;;;;;15.48;8.48;;;18.30;99.90;;;;;;5070059;28;20239;-50
2022/10/30 09:57:32;;;;;;;13.10;7.38;;;18.30;99.90;;;;;;5094312;28;20179;-50
2022/10/30 10:00:03;;;;;;;18.20;8.38;;;18.30;99.90;;;;;;5093943;28;20170;-51
2022/10/30 10:02:38;;;;;;;12.50;7.60;;;18.30;99.90;;;;;;5093569;28;20213;-51
2022/10/30 10:05:18;;;;;;;14.00;7.43;;;18.30;99.90;;;;;;5094352;28;20179;-50
2022/10/30 10:07:57;;;;;;;13.38;7.78;;;18.40;99.90;;;;;;5093833;28;20173;-51
2022/10/30 10:10:34;;;;;;;16.58;7.63;;;18.50;99.90;;;;;;5093893;28;20158;-50
2022/10/30 10:13:01;;;;;;;18.00;7.97;;;18.60;99.90;;;;;;5094178;28;20210;-51
2022/10/30 10:15:52;;;;;;;15.93;7.15;;;18.70;99.90;;;;;;5093697;28;20173;-51
2022/10/30 10:18:30;;;;;;;13.10;7.72;;;18.70;99.90;;;;;;5093709;28;20161;-51
2022/10/30 10:21:00;;;;;;;14.57;7.00;;;18.80;99.90;;;;;;5093648;28;20210;-51
2022/10/30 10:23:43;;;;;;;13.75;6.85;;;19.00;99.90;;;;;;5093547;28;20181;-51
2022/10/30 10:26:30;;;;;;;16.00;6.28;;;19.00;99.90;;;;;;5093755;28;20208;-51
2022/10/30 10:29:07;;;;;;;12.60;7.00;;;19.00;99.90;;;;;;5093436;28;20172;-51
2022/10/30 10:31:36;;;;;;;15.93;7.40;;;19.10;99.90;;;;;;5093575;28;20252;-51
2022/10/30 10:34:27;;;;;;;14.32;7.40;;;19.20;99.90;;;;;;5093676;28;20605;-50
2022/10/30 10:37:15;;;;;;;16.98;6.90;;;19.30;99.90;;;;;;5093265;28;20165;-50
2022/10/30 10:40:07;;;;;;;12.30;6.10;;;19.40;99.90;;;;;;5093247;28;20637;-50
2022/10/30 10:43:00;;;;;;;11.45;6.20;;;19.40;99.90;;;;;;5093215;28;20161;-51
2022/10/30 10:45:51;;;;;;;10.45;5.82;;;19.40;99.90;;;;;;5093139;28;20170;-51
2022/10/30 10:48:44;;;;;;;16.63;8.63;;;19.50;99.90;;;;;;5091932;28;20211;-51
2022/10/30 10:51:18;;;;;;;17.75;6.57;;;19.60;99.90;;;;;;5091327;28;20248;-51
2022/10/30 10:53:50;;;;;;;17.95;7.40;;;19.80;99.90;;;;;;5092486;28;20200;-51
2022/10/30 10:56:17;;;;;;;14.32;7.22;;;19.90;99.90;;;;;;5073265;28;20201;-51
2022/10/30 10:59:11;;;;;;;12.15;5.60;;;20.00;99.90;;;;;;5091264;28;20199;-51
2022/10/30 11:01:43;;;;;;;10.60;6.30;;;20.00;99.90;;;;;;5091758;28;20252;-50
2022/10/30 11:04:23;;;;;;;12.18;6.30;;;19.90;99.90;;;;;;5091151;28;20377;-50
2022/10/30 11:07:01;;;;;;;10.48;6.38;;;19.90;99.90;;;;;;5090181;28;20176;-50
2022/10/30 11:09:27;;;;;;;12.88;6.22;;;19.80;99.90;;;;;;5090886;28;20164;-51
2022/10/30 11:11:54;;;;;;;17.90;7.43;;;19.80;99.90;;;;;;5092110;28;20165;-51
2022/10/30 11:14:23;;;;;;;14.82;6.85;;;19.80;99.90;;;;;;5090912;28;20213;-50
2022/10/30 11:17:07;;;;;;;12.52;6.85;;;19.80;99.90;;;;;;5074170;28;20260;-50
2022/10/30 11:19:33;;;;;;;13.80;6.60;;;19.80;99.90;;;;;;5093033;28;20173;-50
2022/10/30 11:22:00;;;;;;;17.25;6.75;;;19.90;99.90;;;;;;5092732;28;20277;-51
2022/10/30 11:24:31;;;;;;;12.23;6.95;;;19.90;99.90;;;;;;5092536;28;20197;-51
2022/10/30 11:27:18;;;;;;;15.30;6.60;;;20.00;99.90;;;;;;5092403;28;20161;-50
2022/10/30 11:30:04;;;;;;;14.30;6.63;;;20.00;99.90;;;;;;5081410;28;20232;-50
2022/10/30 11:32:32;;;;;;;24.15;7.20;;;20.00;99.90;;;;;;5092500;28;20171;-50
2022/10/30 11:35:11;;;;;;;15.63;6.70;;;20.10;99.90;;;;;;5092206;28;20211;-50
2022/10/30 11:37:38;;;;;;;11.73;6.40;;;20.20;99.90;;;;;;5092137;28;20621;-50
2022/10/30 11:40:12;;;;;;;13.40;6.30;;;20.20;99.90;;;;;;5091907;28;20207;-50
2022/10/30 11:42:50;;;;;;;15.15;6.60;;;20.20;99.90;;;;;;5092160;28;20165;-50
2022/10/30 11:45:24;;;;;;;17.70;6.90;;;20.20;99.90;;;;;;5092222;28;20517;-51
2022/10/30 11:47:51;;;;;;;13.02;6.57;;;20.20;99.90;;;;;;5092013;28;20169;-51
2022/10/30 11:50:19;;;;;;;11.45;6.35;;;20.30;99.90;;;;;;5091997;28;20169;-50
2022/10/30 11:52:48;;;;;;;13.18;6.25;;;20.30;99.90;;;;;;5092241;28;20177;-50
2022/10/30 11:55:32;;;;;;;12.30;6.40;;;20.30;99.90;;;;;;5092121;28;20690;-50
2022/10/30 11:57:58;;;;;;;13.75;5.90;;;20.40;99.90;;;;;;5091920;28;20256;-50
2022/10/30 12:00:31;;;;;;;14.95;5.80;;;20.40;99.90;;;;;;5091797;28;20168;-51
2022/10/30 12:03:02;;;;;;;14.13;5.90;;;20.40;99.90;;;;;;5091657;28;20232;-51
2022/10/30 12:05:39;;;;;;;17.58;5.78;;;20.30;99.90;;;;;;5094394;28;20527;-50
2022/10/30 12:08:07;;;;;;;14.15;6.07;;;20.30;99.90;;;;;;5089736;28;20160;-51
2022/10/30 12:10:38;;;;;;;11.82;5.38;;;20.40;99.90;;;;;;5112067;28;20160;-49
2022/10/30 12:13:05;;;;;;;15.15;7.00;;;20.40;99.90;;;;;;5094068;28;20165;-49
2022/10/30 12:15:36;;;;;;;13.90;6.13;;;20.50;99.90;;;;;;5112476;28;20181;-49
2022/10/30 12:18:07;;;;;;;12.38;5.75;;;20.50;99.90;;;;;;5112398;28;20167;-49
2022/10/30 12:20:36;;;;;;;12.68;6.35;;;20.50;99.90;;;;;;5111924;28;20512;-50
2022/10/30 12:23:18;;;;;;;13.13;5.78;;;20.50;99.90;;;;;;5111304;28;20518;-50
2022/10/30 12:25:47;;;;;;;12.90;5.72;;;20.50;99.90;;;;;;5114207;28;20169;-50
2022/10/30 12:28:17;;;;;;;15.40;6.72;;;20.60;99.90;;;;;;5115493;28;20165;-50
2022/10/30 12:31:11;;;;;;;13.38;5.80;;;20.60;99.90;;;;;;5115520;28;20199;-50
2022/10/30 12:34:05;;;;;;;11.93;5.03;;;20.70;99.90;;;;;;5096867;28;20303;-50
2022/10/30 12:36:39;;;;;;;15.23;6.68;;;20.70;99.90;;;;;;5089371;28;20183;-50
2022/10/30 12:39:26;;;;;;;21.38;11.40;;;20.70;99.90;;;;;;5115773;28;20255;-51
2022/10/30 12:42:13;;;;;;;17.88;10.57;;;20.90;99.90;;;;;;5115727;28;20199;-50
2022/10/30 12:44:54;;;;;;;18.85;8.23;;;20.90;99.90;;;;;;5115594;28;20268;-50
2022/10/30 12:47:35;;;;;;;14.02;5.80;;;20.90;99.90;;;;;;5115115;28;20161;-50
2022/10/30 12:50:12;;;;;;;13.82;7.38;;;20.90;99.90;;;;;;5115810;28;20172;-50